Time;durP1;ratioP1;P1;durP2;ratioP2;P2;SDS_P1;SDS_P2;PMS_P1;PMS_P2;Temp;Humidity;BMP_temperature;BMP_pressure;BME280_temperature;BME280_humidity;BME280_pressure;Samples;Min_cycle;Max_cycle;Signal;HPM_P1;HPM_P2
2020/12/02 00:02:31;;;;;;;52.80;27.50;;;4.00;99.90;;;;;;5067584;28;20659;-50
2020/12/02 00:05:01;;;;;;;51.63;26.20;;;4.00;99.90;;;;;;5084812;28;20198;-41
2020/12/02 00:07:29;;;;;;;52.43;27.53;;;3.90;99.90;;;;;;5080643;28;20249;-42
2020/12/02 00:09:55;;;;;;;49.90;26.20;;;3.90;99.90;;;;;;5085156;28;20181;-42
2020/12/02 00:12:22;;;;;;;47.87;25.87;;;3.90;99.90;;;;;;5081415;28;20281;-50
2020/12/02 00:14:47;;;;;;;51.53;27.47;;;3.90;99.90;;;;;;5084569;28;20256;-43
2020/12/02 00:17:18;;;;;;;52.47;26.00;;;3.90;99.90;;;;;;5069021;28;20185;-50
2020/12/02 00:19:43;;;;;;;51.30;26.23;;;4.00;99.90;;;;;;5084037;28;20660;-48
2020/12/02 00:22:12;;;;;;;50.80;27.10;;;3.90;99.90;;;;;;5093817;28;20255;-43
2020/12/02 00:24:38;;;;;;;50.00;26.23;;;4.00;99.90;;;;;;5104189;28;20204;-50
2020/12/02 00:27:21;;;;;;;49.60;24.30;;;4.00;99.90;;;;;;5083218;28;20284;-43
2020/12/02 00:29:47;;;;;;;51.87;26.03;;;4.00;99.90;;;;;;5060738;28;20166;-49
2020/12/02 00:32:31;;;;;;;46.10;25.37;;;4.00;99.90;;;;;;5057128;28;20663;-42
2020/12/02 00:34:57;;;;;;;49.30;25.17;;;4.00;99.90;;;;;;5100448;28;20230;-44
2020/12/02 00:37:24;;;;;;;49.60;25.03;;;4.00;99.90;;;;;;5104443;27;20181;-44
2020/12/02 00:39:49;;;;;;;45.70;23.97;;;4.00;99.90;;;;;;5101918;28;20184;-52
2020/12/02 00:42:15;;;;;;;53.67;25.53;;;4.00;99.90;;;;;;5102974;28;20189;-44
2020/12/02 00:44:41;;;;;;;48.03;23.97;;;3.90;99.90;;;;;;5103248;28;20201;-49
2020/12/02 00:47:21;;;;;;;49.80;25.90;;;3.90;99.90;;;;;;5101559;28;20158;-46
2020/12/02 00:49:48;;;;;;;50.73;25.73;;;3.80;99.90;;;;;;5086875;28;20213;-51
2020/12/02 00:52:14;;;;;;;47.90;25.53;;;3.80;99.90;;;;;;5102084;28;20693;-44
2020/12/02 00:54:41;;;;;;;50.10;25.17;;;3.80;99.90;;;;;;5103562;28;20169;-46
2020/12/02 00:57:17;;;;;;;47.63;24.63;;;3.80;99.90;;;;;;5100086;28;20185;-42
2020/12/02 00:59:49;;;;;;;44.27;22.87;;;3.80;99.90;;;;;;5082363;28;20170;-43
2020/12/02 01:02:29;;;;;;;52.53;24.73;;;3.80;99.90;;;;;;5082731;28;21100;-47
2020/12/02 01:04:57;;;;;;;47.73;24.10;;;3.80;99.90;;;;;;5075146;28;20205;-43
2020/12/02 01:07:22;;;;;;;45.90;24.20;;;3.80;99.90;;;;;;5103537;28;20187;-44
2020/12/02 01:09:50;;;;;;;46.73;23.63;;;3.70;99.90;;;;;;5101754;28;20184;-45
2020/12/02 01:12:17;;;;;;;47.30;23.73;;;3.80;99.90;;;;;;5102758;28;20733;-45
2020/12/02 01:14:43;;;;;;;46.53;24.17;;;3.70;99.90;;;;;;5102650;28;20666;-42
2020/12/02 01:17:10;;;;;;;48.07;25.53;;;3.70;99.90;;;;;;5101389;28;20208;-44
2020/12/02 01:19:38;;;;;;;47.37;24.77;;;3.70;99.90;;;;;;5103270;28;20525;-44
2020/12/02 01:22:21;;;;;;;49.30;24.87;;;3.70;99.90;;;;;;5068314;28;20209;-45
2020/12/02 01:25:23;;;;;;;50.07;24.50;;;3.70;99.90;;;;;;5081398;28;20240;-45
2020/12/02 01:28:00;;;;;;;49.00;24.37;;;3.60;99.90;;;;;;5057644;28;20206;-43
2020/12/02 01:30:26;;;;;;;45.97;24.80;;;3.60;99.90;;;;;;5081088;28;20182;-45
2020/12/02 01:32:52;;;;;;;45.33;22.70;;;3.60;99.90;;;;;;5080071;28;20201;-43
2020/12/02 01:35:23;;;;;;;50.93;24.20;;;3.60;99.90;;;;;;5082940;28;20178;-46
2020/12/02 01:37:55;;;;;;;47.97;25.13;;;3.60;99.90;;;;;;5083877;28;20300;-44
2020/12/02 01:40:24;;;;;;;47.73;25.73;;;3.60;99.90;;;;;;5103820;28;20178;-50
2020/12/02 01:43:02;;;;;;;48.40;25.40;;;3.50;99.90;;;;;;5100403;28;20213;-45
2020/12/02 01:45:45;;;;;;;44.97;24.37;;;3.60;99.90;;;;;;5103750;28;20201;-49
2020/12/02 01:48:49;;;;;;;49.50;23.87;;;3.60;99.90;;;;;;5101722;28;20168;-47
2020/12/02 01:51:33;;;;;;;42.63;23.73;;;3.60;99.90;;;;;;5089444;28;20228;-44
2020/12/02 01:54:10;;;;;;;46.90;24.07;;;3.60;99.90;;;;;;5067126;28;20338;-45
2020/12/02 01:56:44;;;;;;;48.07;24.47;;;3.50;99.90;;;;;;5079372;28;20185;-45
2020/12/02 01:59:35;;;;;;;49.03;24.83;;;3.60;99.90;;;;;;5060617;28;20163;-43
2020/12/02 02:02:20;;;;;;;46.97;24.57;;;3.60;99.90;;;;;;5059037;28;20190;-44
2020/12/02 02:05:09;;;;;;;50.00;24.13;;;3.60;99.90;;;;;;5060944;28;20719;-45
2020/12/02 02:07:36;;;;;;;47.93;24.37;;;3.60;99.90;;;;;;5058224;28;20227;-45
2020/12/02 02:10:16;;;;;;;49.17;24.43;;;3.60;99.90;;;;;;5079129;28;20405;-45
2020/12/02 02:13:10;;;;;;;52.93;23.27;;;3.60;99.90;;;;;;5081924;28;20194;-46
2020/12/02 02:15:42;;;;;;;51.77;25.83;;;3.60;99.90;;;;;;5072489;28;20190;-45
2020/12/02 02:18:23;;;;;;;48.80;23.87;;;3.60;99.90;;;;;;5083489;28;20169;-47
2020/12/02 02:20:55;;;;;;;50.33;25.37;;;3.60;99.90;;;;;;5070952;28;20178;-43
2020/12/02 02:23:21;;;;;;;48.73;24.97;;;3.60;99.90;;;;;;5080354;28;20203;-48
2020/12/02 02:26:13;;;;;;;48.20;24.37;;;3.50;99.90;;;;;;5104501;28;20261;-44
2020/12/02 02:28:42;;;;;;;49.43;24.20;;;3.50;99.90;;;;;;5078939;28;20548;-43
2020/12/02 02:31:17;;;;;;;52.87;23.80;;;3.50;99.90;;;;;;5100230;28;20212;-46
2020/12/02 02:33:43;;;;;;;48.27;24.47;;;3.60;99.90;;;;;;5103527;28;20172;-42
2020/12/02 02:36:11;;;;;;;45.07;23.67;;;3.60;99.90;;;;;;5106524;28;20698;-46
2020/12/02 02:38:37;;;;;;;48.67;25.00;;;3.60;99.90;;;;;;5089152;28;20225;-42
2020/12/02 02:41:03;;;;;;;46.37;24.93;;;3.60;99.90;;;;;;5105231;28;20162;-43
2020/12/02 02:43:28;;;;;;;51.37;25.33;;;3.50;99.90;;;;;;5106013;28;20177;-43
2020/12/02 02:45:54;;;;;;;44.27;23.57;;;3.50;99.90;;;;;;5103464;28;20157;-46
2020/12/02 02:48:19;;;;;;;48.07;24.80;;;3.60;99.90;;;;;;5106997;28;20169;-48
2020/12/02 02:50:45;;;;;;;46.87;25.83;;;3.50;99.90;;;;;;5091219;28;20174;-43
2020/12/02 02:53:20;;;;;;;46.93;25.33;;;3.50;99.90;;;;;;5072883;28;20205;-47
2020/12/02 02:55:46;;;;;;;42.57;22.27;;;3.50;99.90;;;;;;5081492;28;20747;-45
2020/12/02 02:58:12;;;;;;;51.63;24.93;;;3.50;99.90;;;;;;5086249;28;20704;-49
2020/12/02 03:00:39;;;;;;;47.93;24.47;;;3.50;99.90;;;;;;5083700;28;20207;-45
2020/12/02 03:03:07;;;;;;;44.37;23.60;;;3.50;99.90;;;;;;5085334;28;20221;-45
2020/12/02 03:05:33;;;;;;;45.00;24.27;;;3.50;99.90;;;;;;5084692;28;20204;-43
2020/12/02 03:08:02;;;;;;;47.77;24.20;;;3.50;99.90;;;;;;5073457;28;23895;-44
2020/12/02 03:10:31;;;;;;;44.23;22.83;;;3.50;99.90;;;;;;5105734;28;20226;-43
2020/12/02 03:13:02;;;;;;;50.03;23.47;;;3.50;99.90;;;;;;5103530;28;20185;-45
2020/12/02 03:15:28;;;;;;;48.73;23.93;;;3.50;99.90;;;;;;5105615;28;20188;-46
2020/12/02 03:17:54;;;;;;;51.30;24.87;;;3.50;99.90;;;;;;5102901;28;20158;-46
2020/12/02 03:20:29;;;;;;;43.43;23.40;;;3.50;99.90;;;;;;5098383;28;20193;-47
2020/12/02 03:22:54;;;;;;;47.37;24.53;;;3.50;99.90;;;;;;5071528;28;20243;-44
2020/12/02 03:25:24;;;;;;;44.70;24.13;;;3.50;99.90;;;;;;5105656;28;20209;-44
2020/12/02 03:27:50;;;;;;;47.07;23.93;;;3.50;99.90;;;;;;5101648;28;20679;-45
2020/12/02 03:30:17;;;;;;;45.93;24.90;;;3.60;99.90;;;;;;5105587;28;20260;-47
2020/12/02 03:32:43;;;;;;;46.17;23.63;;;3.60;99.90;;;;;;5102487;28;20229;-48
2020/12/02 03:35:08;;;;;;;43.67;24.13;;;3.60;99.90;;;;;;5105718;28;20262;-47
2020/12/02 03:37:34;;;;;;;44.13;23.87;;;3.60;99.90;;;;;;5103870;28;20177;-48
2020/12/02 03:39:59;;;;;;;39.97;22.00;;;3.60;99.90;;;;;;5088135;28;20178;-52
2020/12/02 03:42:26;;;;;;;46.67;24.47;;;3.60;99.90;;;;;;5104615;28;20331;-47
2020/12/02 03:44:51;;;;;;;43.33;23.87;;;3.60;99.90;;;;;;5101528;28;20809;-45
2020/12/02 03:47:17;;;;;;;43.83;24.30;;;3.60;99.90;;;;;;5105848;28;20169;-47
2020/12/02 03:49:42;;;;;;;47.97;23.77;;;3.60;99.90;;;;;;5098982;28;20311;-44
2020/12/02 03:52:07;;;;;;;47.90;23.43;;;3.60;99.90;;;;;;5083928;28;20525;-43
2020/12/02 03:54:33;;;;;;;44.70;24.70;;;3.60;99.90;;;;;;5077677;28;20181;-43
2020/12/02 03:56:58;;;;;;;39.33;21.73;;;3.60;99.90;;;;;;5060792;28;20182;-47
2020/12/02 03:59:24;;;;;;;53.83;25.67;;;3.60;99.90;;;;;;5065118;28;20182;-45
2020/12/02 04:01:49;;;;;;;47.27;23.40;;;3.60;99.90;;;;;;5060881;28;20193;-45
2020/12/02 04:04:15;;;;;;;47.13;24.80;;;3.60;99.90;;;;;;5064721;28;20225;-45
2020/12/02 04:06:40;;;;;;;47.43;24.27;;;3.60;99.90;;;;;;5061717;28;20181;-45
2020/12/02 04:09:06;;;;;;;48.50;24.27;;;3.60;99.90;;;;;;5063971;28;20171;-47
2020/12/02 04:11:31;;;;;;;49.00;24.17;;;3.60;99.90;;;;;;5059588;28;20591;-46
2020/12/02 04:13:57;;;;;;;44.60;22.57;;;3.60;99.90;;;;;;5082324;28;20166;-44
2020/12/02 04:16:22;;;;;;;42.23;23.47;;;3.60;99.90;;;;;;5084700;28;20694;-45
2020/12/02 04:18:48;;;;;;;42.57;22.13;;;3.60;99.90;;;;;;5080837;28;20166;-44
2020/12/02 04:21:13;;;;;;;45.13;24.27;;;3.60;99.90;;;;;;5068922;28;20699;-44
2020/12/02 04:23:39;;;;;;;45.63;24.70;;;3.60;99.90;;;;;;5061650;28;20686;-43
2020/12/02 04:26:04;;;;;;;46.33;25.70;;;3.60;99.90;;;;;;5055994;28;20193;-45
2020/12/02 04:28:30;;;;;;;45.50;25.43;;;3.60;99.90;;;;;;5083752;28;20180;-44
2020/12/02 04:30:58;;;;;;;48.13;24.80;;;3.60;99.90;;;;;;5081633;28;20166;-48
2020/12/02 04:33:25;;;;;;;48.83;23.73;;;3.60;99.90;;;;;;5084528;28;20178;-48
2020/12/02 04:35:50;;;;;;;44.93;24.33;;;3.60;99.90;;;;;;5074729;28;20194;-47
2020/12/02 04:38:16;;;;;;;43.17;23.17;;;3.60;99.90;;;;;;5099805;28;20169;-45
2020/12/02 04:40:42;;;;;;;39.73;21.47;;;3.60;99.90;;;;;;5101266;28;20218;-45
2020/12/02 04:43:19;;;;;;;47.10;23.40;;;3.60;99.90;;;;;;5087850;28;20671;-48
2020/12/02 04:45:45;;;;;;;50.80;23.93;;;3.60;99.90;;;;;;5100053;28;20205;-44
2020/12/02 04:48:15;;;;;;;43.07;22.63;;;3.60;99.90;;;;;;5104691;28;20165;-44
2020/12/02 04:50:40;;;;;;;43.40;23.53;;;3.60;99.90;;;;;;5091128;28;20188;-44
2020/12/02 04:53:22;;;;;;;45.87;22.93;;;3.60;99.90;;;;;;5082828;28;20190;-44
2020/12/02 04:55:52;;;;;;;43.30;23.53;;;3.60;99.90;;;;;;5079784;28;20743;-45
2020/12/02 04:58:27;;;;;;;42.07;22.63;;;3.60;99.90;;;;;;5066374;28;20190;-47
2020/12/02 05:00:53;;;;;;;41.30;22.57;;;3.70;99.90;;;;;;5058338;28;20216;-47
2020/12/02 05:03:19;;;;;;;44.57;23.47;;;3.60;99.90;;;;;;5090418;28;20198;-44
2020/12/02 05:05:45;;;;;;;47.63;24.47;;;3.60;99.90;;;;;;5081617;28;20208;-44
2020/12/02 05:08:26;;;;;;;46.67;24.37;;;3.60;99.90;;;;;;5063737;28;20595;-45
2020/12/02 05:10:53;;;;;;;41.57;22.47;;;3.60;99.90;;;;;;5074063;28;20185;-46
2020/12/02 05:13:20;;;;;;;42.33;23.60;;;3.70;99.90;;;;;;5075145;28;20225;-43
2020/12/02 05:15:45;;;;;;;39.57;21.23;;;3.70;99.90;;;;;;5084769;28;20213;-47
2020/12/02 05:18:14;;;;;;;42.10;22.07;;;3.70;99.90;;;;;;5063159;28;20676;-42
2020/12/02 05:20:41;;;;;;;39.07;22.73;;;3.70;99.90;;;;;;5066327;28;20949;-46
2020/12/02 05:23:16;;;;;;;42.43;22.60;;;3.70;99.90;;;;;;5064980;28;20213;-47
2020/12/02 05:25:41;;;;;;;41.40;22.33;;;3.70;99.90;;;;;;5080755;28;20193;-48
2020/12/02 05:28:24;;;;;;;41.40;22.20;;;3.70;99.90;;;;;;5072716;28;20528;-45
2020/12/02 05:31:00;;;;;;;42.53;22.60;;;3.70;99.90;;;;;;5062542;28;20582;-47
2020/12/02 05:33:29;;;;;;;40.23;21.97;;;3.70;99.90;;;;;;5059649;28;20219;-45
2020/12/02 05:36:04;;;;;;;43.87;23.47;;;3.70;99.90;;;;;;5081721;28;20174;-47
2020/12/02 05:38:36;;;;;;;45.20;23.40;;;3.70;99.90;;;;;;5065307;28;20447;-46
2020/12/02 05:41:03;;;;;;;45.13;23.17;;;3.70;99.90;;;;;;5063370;28;20167;-42
2020/12/02 05:43:53;;;;;;;47.23;24.37;;;3.70;99.90;;;;;;5058958;28;20197;-46
2020/12/02 05:46:31;;;;;;;43.57;23.00;;;3.70;99.90;;;;;;5057320;28;20197;-42
2020/12/02 05:49:10;;;;;;;43.90;23.23;;;3.70;99.90;;;;;;5083162;28;20189;-44
2020/12/02 05:51:37;;;;;;;46.90;22.47;;;3.70;99.90;;;;;;5065581;28;20959;-46
2020/12/02 05:54:08;;;;;;;45.20;24.40;;;3.70;99.90;;;;;;5067552;28;20182;-50
2020/12/02 05:56:34;;;;;;;40.30;22.73;;;3.70;99.90;;;;;;5078858;28;20244;-45
2020/12/02 05:59:01;;;;;;;45.20;23.00;;;3.70;99.90;;;;;;5066860;28;20175;-45
2020/12/02 06:01:28;;;;;;;44.60;25.00;;;3.70;99.90;;;;;;5069806;28;20205;-45
2020/12/02 06:03:55;;;;;;;43.87;23.43;;;3.70;99.90;;;;;;5077239;28;20289;-46
2020/12/02 06:06:22;;;;;;;43.53;22.53;;;3.70;99.90;;;;;;5064192;28;20162;-45
2020/12/02 06:08:50;;;;;;;40.70;22.80;;;3.70;99.90;;;;;;5062183;28;20210;-43
2020/12/02 06:11:15;;;;;;;42.07;22.77;;;3.70;99.90;;;;;;5065017;28;20200;-43
2020/12/02 06:14:00;;;;;;;49.03;23.00;;;3.70;99.90;;;;;;5063992;28;20891;-48
2020/12/02 06:16:46;;;;;;;43.37;23.20;;;3.70;99.90;;;;;;5055212;28;20237;-44
2020/12/02 06:19:21;;;;;;;48.60;24.47;;;3.70;99.90;;;;;;5076196;28;20181;-51
2020/12/02 06:21:54;;;;;;;42.23;22.70;;;3.70;99.90;;;;;;5064390;28;20241;-44
2020/12/02 06:24:44;;;;;;;47.63;22.73;;;3.80;99.90;;;;;;5063912;28;20206;-46
2020/12/02 06:27:15;;;;;;;44.47;22.53;;;3.80;99.90;;;;;;5065835;28;20459;-50
2020/12/02 06:29:46;;;;;;;46.17;23.53;;;3.80;99.90;;;;;;5063826;28;20185;-42
2020/12/02 06:32:24;;;;;;;41.23;23.20;;;3.70;99.90;;;;;;5078571;28;20232;-47
2020/12/02 06:35:06;;;;;;;45.13;22.50;;;3.70;99.90;;;;;;5078236;28;20327;-43
2020/12/02 06:37:32;;;;;;;41.97;22.33;;;3.70;99.90;;;;;;5061995;28;20174;-42
2020/12/02 06:39:59;;;;;;;36.27;21.73;;;3.70;99.90;;;;;;5066462;28;20210;-43
2020/12/02 06:42:41;;;;;;;38.80;22.53;;;3.80;99.90;;;;;;5058796;28;20571;-48
2020/12/02 06:45:16;;;;;;;40.47;22.70;;;3.80;99.90;;;;;;5066242;28;20244;-44
2020/12/02 06:47:50;;;;;;;46.30;23.20;;;3.80;99.90;;;;;;5064009;28;20238;-45
2020/12/02 06:50:21;;;;;;;45.13;23.63;;;3.80;99.90;;;;;;5080900;28;20193;-44
2020/12/02 06:52:46;;;;;;;40.43;22.27;;;3.80;99.90;;;;;;5080499;28;20929;-42
2020/12/02 06:55:18;;;;;;;42.43;22.37;;;3.70;99.90;;;;;;5091696;28;20193;-49
2020/12/02 06:57:43;;;;;;;41.23;22.33;;;3.70;99.90;;;;;;5079606;28;20217;-45
2020/12/02 07:00:22;;;;;;;42.53;23.33;;;3.70;99.90;;;;;;5097375;28;20769;-48
2020/12/02 07:03:02;;;;;;;42.40;23.37;;;3.70;99.90;;;;;;5079738;28;20206;-44
2020/12/02 07:05:44;;;;;;;42.73;22.63;;;3.70;99.90;;;;;;5085374;28;20210;-51
2020/12/02 07:08:15;;;;;;;45.07;21.67;;;3.80;99.90;;;;;;5066699;28;20266;-48
2020/12/02 07:10:51;;;;;;;40.20;23.97;;;3.80;99.90;;;;;;5075332;28;20193;-44
2020/12/02 07:13:16;;;;;;;40.43;22.30;;;3.80;99.90;;;;;;5074335;28;20800;-49
2020/12/02 07:15:43;;;;;;;41.77;22.67;;;3.80;99.90;;;;;;5063062;28;20171;-42
2020/12/02 07:18:16;;;;;;;39.27;23.43;;;3.80;99.90;;;;;;5065637;28;20816;-42
2020/12/02 07:20:46;;;;;;;41.53;22.50;;;3.80;99.90;;;;;;5092720;28;20823;-44
2020/12/02 07:23:14;;;;;;;39.10;22.10;;;3.80;99.90;;;;;;5103720;27;20292;-50
2020/12/02 07:25:39;;;;;;;39.00;21.37;;;3.80;99.90;;;;;;5097365;28;20902;-47
2020/12/02 07:28:17;;;;;;;40.40;21.10;;;3.80;99.90;;;;;;5083968;28;20175;-49
2020/12/02 07:30:44;;;;;;;38.83;21.80;;;3.80;99.90;;;;;;5077498;28;20217;-45
2020/12/02 07:33:15;;;;;;;40.20;21.83;;;3.70;99.90;;;;;;5081495;28;20198;-49
2020/12/02 07:35:41;;;;;;;42.07;22.93;;;3.80;99.90;;;;;;5092331;28;20781;-45
2020/12/02 07:38:12;;;;;;;39.67;22.60;;;3.80;99.90;;;;;;5074287;28;20190;-42
2020/12/02 07:40:38;;;;;;;38.57;21.47;;;3.80;99.90;;;;;;5061733;28;20178;-44
2020/12/02 07:43:11;;;;;;;42.23;22.37;;;3.80;99.90;;;;;;5065023;28;20202;-43
2020/12/02 07:45:37;;;;;;;42.20;23.23;;;3.80;99.90;;;;;;5057715;28;20210;-42
2020/12/02 07:48:10;;;;;;;38.47;22.90;;;3.80;99.90;;;;;;5065246;28;20175;-45
2020/12/02 07:50:53;;;;;;;38.87;21.20;;;3.80;99.90;;;;;;5070435;28;20186;-46
2020/12/02 07:53:24;;;;;;;37.67;21.90;;;3.80;99.90;;;;;;5082767;28;20181;-52
2020/12/02 07:55:52;;;;;;;45.23;23.03;;;3.70;99.90;;;;;;5079640;28;20768;-47
2020/12/02 07:58:32;;;;;;;48.20;24.43;;;3.80;99.90;;;;;;5063048;28;20182;-49
2020/12/02 08:01:05;;;;;;;40.20;23.20;;;3.80;99.90;;;;;;5061304;28;20202;-42
2020/12/02 08:03:38;;;;;;;41.27;22.70;;;3.80;99.90;;;;;;5060560;28;20178;-42
2020/12/02 08:06:09;;;;;;;41.37;23.20;;;3.80;99.90;;;;;;5081213;28;20189;-45
2020/12/02 08:08:34;;;;;;;38.10;21.57;;;3.80;99.90;;;;;;5101171;28;20195;-42
2020/12/02 08:11:15;;;;;;;37.47;21.83;;;3.80;99.90;;;;;;5073932;28;20198;-42
2020/12/02 08:13:53;;;;;;;40.40;22.37;;;3.80;99.90;;;;;;5075023;28;20174;-41
2020/12/02 08:16:42;;;;;;;38.43;21.67;;;3.80;99.90;;;;;;5057816;28;20194;-49
2020/12/02 08:19:10;;;;;;;40.33;21.67;;;3.80;99.90;;;;;;5063224;28;20190;-44
2020/12/02 08:21:37;;;;;;;40.93;20.53;;;3.80;99.90;;;;;;5069420;28;20267;-43
2020/12/02 08:24:21;;;;;;;37.27;21.30;;;3.80;99.90;;;;;;5085033;28;20616;-45
2020/12/02 08:26:50;;;;;;;37.33;20.87;;;3.80;99.90;;;;;;5079302;28;20183;-46
2020/12/02 08:29:21;;;;;;;39.53;21.63;;;3.80;99.90;;;;;;5082228;28;20638;-48
2020/12/02 08:32:02;;;;;;;39.83;22.13;;;3.80;99.90;;;;;;5083996;28;20206;-43
2020/12/02 08:34:33;;;;;;;40.23;22.40;;;3.80;99.90;;;;;;5080458;28;20201;-50
2020/12/02 08:37:10;;;;;;;40.00;21.67;;;3.80;99.90;;;;;;5058390;28;20284;-45
2020/12/02 08:39:38;;;;;;;34.57;20.47;;;3.80;99.90;;;;;;5060317;28;20171;-43
2020/12/02 08:42:03;;;;;;;37.60;21.63;;;3.80;99.90;;;;;;5063539;28;20675;-48
2020/12/02 08:44:28;;;;;;;39.30;21.07;;;3.80;99.90;;;;;;5059759;28;20760;-49
2020/12/02 08:47:09;;;;;;;38.63;21.60;;;3.90;99.90;;;;;;5083253;28;20658;-48
2020/12/02 08:49:36;;;;;;;38.70;21.60;;;3.90;99.90;;;;;;5100309;28;20173;-45
2020/12/02 08:52:02;;;;;;;32.23;20.27;;;3.90;99.90;;;;;;5088524;28;20213;-48
2020/12/02 08:54:28;;;;;;;36.40;21.37;;;3.90;99.90;;;;;;5100365;28;20552;-49
2020/12/02 08:57:05;;;;;;;36.90;20.63;;;3.90;99.90;;;;;;5089634;27;20188;-43
2020/12/02 08:59:30;;;;;;;37.13;21.60;;;3.90;99.90;;;;;;5062122;28;20174;-43
2020/12/02 09:02:00;;;;;;;37.07;20.73;;;3.90;99.90;;;;;;5059771;28;20705;-45
2020/12/02 09:04:26;;;;;;;31.73;19.23;;;3.90;99.90;;;;;;5059280;28;20655;-48
2020/12/02 09:06:52;;;;;;;35.70;20.70;;;4.00;99.90;;;;;;5063081;28;20169;-48
2020/12/02 09:09:17;;;;;;;34.33;20.27;;;4.00;99.90;;;;;;5082286;28;20192;-50
2020/12/02 09:11:43;;;;;;;36.03;20.23;;;4.00;99.90;;;;;;5101677;28;20276;-48
2020/12/02 09:14:08;;;;;;;38.10;21.50;;;4.00;99.90;;;;;;5104474;28;20232;-44
2020/12/02 09:16:39;;;;;;;34.97;20.23;;;4.00;99.90;;;;;;5099804;28;20209;-45
2020/12/02 09:19:07;;;;;;;35.03;20.30;;;4.10;99.90;;;;;;5078654;28;20647;-45
2020/12/02 09:21:33;;;;;;;34.97;19.23;;;4.10;99.90;;;;;;5078979;28;20198;-43
2020/12/02 09:23:59;;;;;;;31.13;19.30;;;4.10;99.90;;;;;;5070621;28;20241;-46
2020/12/02 09:26:35;;;;;;;36.87;21.03;;;4.10;99.90;;;;;;5079187;28;20178;-52
2020/12/02 09:29:07;;;;;;;36.67;20.73;;;4.10;99.90;;;;;;5083539;28;20170;-45
2020/12/02 09:31:33;;;;;;;37.60;21.03;;;4.20;99.90;;;;;;5079062;28;20190;-48
2020/12/02 09:33:59;;;;;;;34.30;20.40;;;4.20;99.90;;;;;;5070096;28;20655;-47
2020/12/02 09:36:25;;;;;;;32.97;19.80;;;4.20;99.90;;;;;;5067637;28;20852;-46
2020/12/02 09:38:52;;;;;;;33.03;21.17;;;4.20;99.90;;;;;;5079330;28;20174;-50
2020/12/02 09:41:27;;;;;;;32.97;19.60;;;4.20;99.90;;;;;;5059269;28;20222;-51
2020/12/02 09:44:14;;;;;;;34.20;19.37;;;4.20;99.90;;;;;;5061254;28;20212;-50
2020/12/02 09:46:42;;;;;;;35.57;20.17;;;4.20;99.90;;;;;;5062225;28;20252;-46
2020/12/02 09:49:08;;;;;;;32.43;19.50;;;4.20;99.90;;;;;;5054508;28;20186;-45
2020/12/02 09:51:34;;;;;;;33.37;20.30;;;4.10;99.90;;;;;;5073701;28;20300;-42
2020/12/02 09:53:59;;;;;;;32.67;19.73;;;4.10;99.90;;;;;;5072223;28;20873;-52
2020/12/02 09:56:28;;;;;;;32.80;19.43;;;4.10;99.90;;;;;;5085660;28;20838;-48
2020/12/02 09:58:57;;;;;;;33.70;19.00;;;4.00;99.90;;;;;;5081672;28;20251;-51
2020/12/02 10:01:59;;;;;;;32.00;19.70;;;4.00;99.90;;;;;;5081295;28;20228;-45
2020/12/02 10:05:00;;;;;;;33.57;19.60;;;4.00;99.90;;;;;;5070917;28;20243;-48
2020/12/02 10:07:59;;;;;;;38.47;20.57;;;4.00;99.90;;;;;;5061300;28;20257;-44
2020/12/02 10:10:40;;;;;;;31.77;19.13;;;3.90;99.90;;;;;;5056245;28;20201;-46
2020/12/02 10:13:26;;;;;;;34.63;20.70;;;3.90;99.90;;;;;;5058587;28;20202;-50
2020/12/02 10:16:17;;;;;;;30.97;18.83;;;3.90;99.90;;;;;;5061473;28;20257;-51
2020/12/02 10:19:07;;;;;;;30.50;19.00;;;3.90;99.90;;;;;;5059564;28;20202;-48
2020/12/02 10:21:45;;;;;;;30.07;18.87;;;3.80;99.90;;;;;;5061510;28;20219;-48
2020/12/02 10:24:14;;;;;;;33.27;19.47;;;3.80;99.90;;;;;;5061299;28;20977;-44
2020/12/02 10:27:05;;;;;;;33.00;19.23;;;3.80;99.90;;;;;;5064729;28;20197;-49
2020/12/02 10:29:58;;;;;;;35.83;19.70;;;3.80;99.90;;;;;;5082659;28;20174;-46
2020/12/02 10:33:08;;;;;;;36.93;19.63;;;3.80;99.90;;;;;;5081004;28;20190;-44
2020/12/02 10:35:37;;;;;;;34.53;20.30;;;3.80;99.90;;;;;;5064910;28;20265;-43
2020/12/02 10:38:11;;;;;;;38.23;20.80;;;3.90;99.90;;;;;;5060528;28;20685;-51
2020/12/02 10:40:41;;;;;;;33.17;20.10;;;3.80;99.90;;;;;;5066198;28;20659;-51
2020/12/02 10:43:33;;;;;;;34.87;21.20;;;3.80;99.90;;;;;;5084893;28;20216;-52
2020/12/02 10:46:02;;;;;;;34.30;19.83;;;3.80;99.90;;;;;;5104162;28;20764;-50
2020/12/02 10:48:42;;;;;;;32.50;20.23;;;3.90;99.90;;;;;;5105451;28;20272;-44
2020/12/02 10:51:13;;;;;;;32.17;19.77;;;3.90;99.90;;;;;;5070391;28;20251;-49
2020/12/02 10:53:41;;;;;;;32.57;20.13;;;3.90;99.90;;;;;;5066167;28;20167;-43
2020/12/02 10:56:08;;;;;;;31.27;18.93;;;3.90;99.90;;;;;;5051436;28;20227;-50
2020/12/02 10:58:33;;;;;;;32.17;19.33;;;3.90;99.90;;;;;;5086436;28;20216;-44
2020/12/02 11:01:01;;;;;;;32.77;19.97;;;3.80;99.90;;;;;;5083246;28;20206;-53
2020/12/02 11:03:32;;;;;;;34.43;21.67;;;3.80;99.90;;;;;;5085009;28;20893;-46
2020/12/02 11:06:12;;;;;;;34.23;20.13;;;3.90;99.90;;;;;;5081530;28;20571;-51
2020/12/02 11:09:02;;;;;;;34.77;20.40;;;3.90;99.90;;;;;;5066044;28;20175;-45
2020/12/02 11:11:36;;;;;;;34.03;20.27;;;3.90;99.90;;;;;;5057243;28;20232;-48
2020/12/02 11:14:23;;;;;;;38.43;19.70;;;3.90;99.90;;;;;;5082912;28;20201;-52
2020/12/02 11:17:10;;;;;;;34.27;19.90;;;3.90;99.90;;;;;;5078292;28;20276;-49
2020/12/02 11:19:53;;;;;;;32.30;19.30;;;3.90;99.90;;;;;;5066168;28;20183;-45
2020/12/02 11:22:37;;;;;;;33.90;20.40;;;3.90;99.90;;;;;;5059251;28;22642;-44
2020/12/02 11:25:27;;;;;;;33.93;19.33;;;3.90;99.90;;;;;;5070435;28;20688;-51
2020/12/02 11:27:54;;;;;;;34.77;19.73;;;3.90;99.90;;;;;;5059888;28;20190;-49
2020/12/02 11:30:25;;;;;;;32.13;20.07;;;3.90;99.90;;;;;;5082995;28;21079;-46
2020/12/02 11:33:27;;;;;;;32.80;19.87;;;3.90;99.90;;;;;;5085321;28;20188;-48
2020/12/02 11:36:17;;;;;;;29.83;18.87;;;3.90;99.90;;;;;;5084377;28;20161;-52
2020/12/02 11:38:48;;;;;;;32.90;19.30;;;3.90;99.90;;;;;;5074930;28;20214;-44
2020/12/02 11:41:28;;;;;;;33.73;19.40;;;3.90;99.90;;;;;;5061639;28;20189;-48
2020/12/02 11:43:58;;;;;;;32.67;18.63;;;3.80;99.90;;;;;;5067974;28;20526;-49
2020/12/02 11:46:26;;;;;;;30.63;19.57;;;3.80;99.90;;;;;;5082324;28;20170;-46
2020/12/02 11:49:02;;;;;;;31.20;19.57;;;3.90;99.90;;;;;;5084055;28;20856;-50
2020/12/02 11:51:46;;;;;;;32.80;20.07;;;3.90;99.90;;;;;;5072611;28;20620;-44
2020/12/02 11:54:13;;;;;;;29.13;19.23;;;3.90;99.90;;;;;;5057269;28;20284;-46
2020/12/02 11:56:47;;;;;;;33.60;19.17;;;3.90;99.90;;;;;;5064244;28;20265;-45
2020/12/02 11:59:20;;;;;;;34.13;20.63;;;3.90;99.90;;;;;;5068892;28;20194;-45
2020/12/02 12:01:53;;;;;;;33.10;20.23;;;3.90;99.90;;;;;;5105469;28;20186;-44
2020/12/02 12:04:33;;;;;;;32.77;19.67;;;3.90;99.90;;;;;;5102729;28;20185;-45
2020/12/02 12:07:28;;;;;;;33.43;18.80;;;3.90;99.90;;;;;;5083214;28;20174;-50
2020/12/02 12:10:03;;;;;;;33.73;19.57;;;3.90;99.90;;;;;;5070775;28;20206;-49
2020/12/02 12:12:46;;;;;;;34.73;19.47;;;3.90;99.90;;;;;;5063312;28;20232;-44
2020/12/02 12:15:31;;;;;;;35.97;19.90;;;3.90;99.90;;;;;;5085160;28;20468;-46
2020/12/02 12:18:03;;;;;;;30.13;19.17;;;3.90;99.90;;;;;;5102864;28;20196;-49
2020/12/02 12:20:32;;;;;;;30.53;18.57;;;4.00;99.90;;;;;;5104120;28;20257;-43
2020/12/02 12:23:22;;;;;;;30.13;18.33;;;3.90;99.90;;;;;;5102471;28;20701;-48
2020/12/02 12:25:49;;;;;;;28.17;18.43;;;3.90;99.90;;;;;;5070370;28;20215;-49
2020/12/02 12:28:22;;;;;;;35.50;19.90;;;3.90;99.90;;;;;;5051473;28;20182;-43
2020/12/02 12:30:50;;;;;;;31.90;19.53;;;3.90;99.90;;;;;;5103700;28;20169;-47
2020/12/02 12:33:33;;;;;;;30.50;18.90;;;3.90;99.90;;;;;;5100360;28;20256;-43
2020/12/02 12:36:07;;;;;;;28.43;18.10;;;4.00;99.90;;;;;;5093448;28;20274;-49
2020/12/02 12:38:45;;;;;;;31.00;18.70;;;4.00;99.90;;;;;;5084374;28;20182;-44
2020/12/02 12:41:29;;;;;;;26.30;17.23;;;3.90;99.90;;;;;;5064942;28;20182;-43
2020/12/02 12:44:14;;;;;;;28.00;17.90;;;4.00;99.90;;;;;;5065257;28;20189;-49
2020/12/02 12:46:53;;;;;;;30.97;19.53;;;4.00;99.90;;;;;;5104347;28;20523;-45
2020/12/02 12:49:19;;;;;;;31.47;19.80;;;4.00;99.90;;;;;;5101616;28;20161;-44
2020/12/02 12:51:45;;;;;;;31.30;18.97;;;4.00;99.90;;;;;;5104339;28;20537;-48
2020/12/02 12:54:16;;;;;;;31.53;18.93;;;4.00;99.90;;;;;;5077796;28;20174;-43
2020/12/02 12:56:43;;;;;;;32.77;20.27;;;4.00;99.90;;;;;;5072364;28;20188;-46
2020/12/02 12:59:13;;;;;;;31.63;18.70;;;4.00;99.90;;;;;;5067310;28;20828;-42
2020/12/02 13:01:39;;;;;;;28.90;18.80;;;4.00;99.90;;;;;;5083211;28;20202;-45
2020/12/02 13:04:07;;;;;;;32.43;19.53;;;4.10;99.90;;;;;;5079211;28;20198;-48